Time;durP1;ratioP1;P1;durP2;ratioP2;P2;SDS_P1;SDS_P2;PMS_P1;PMS_P2;Temp;Humidity;BMP_temperature;BMP_pressure;BME280_temperature;BME280_humidity;BME280_pressure;Samples;Min_cycle;Max_cycle;Signal;HPM_P1;HPM_P2
2023/08/04 00:00:50;;;;;;;;;;;;;;;30.14;32.35;97561.56;5072108;28;20365;-90
2023/08/04 00:03:17;;;;;;;;;;;;;;;30.73;31.55;97570.84;5072150;28;19913;-90
2023/08/04 00:05:43;;;;;;;;;;;;;;;31.10;31.15;97569.09;5072065;28;19917;-90
2023/08/04 00:08:09;;;;;;;;;;;;;;;31.32;30.55;97571.47;5071701;28;19925;-91
2023/08/04 00:10:35;;;;;;;;;;;;;;;31.47;30.46;97563.69;5060493;28;20400;-90
2023/08/04 00:13:01;;;;;;;;;;;;;;;31.05;30.98;97566.97;5050489;28;19929;-90
2023/08/04 00:15:27;;;;;;;;;;;;;;;30.62;31.97;97565.00;5051957;28;19917;-91
2023/08/04 00:17:54;;;;;;;;;;;;;;;30.85;31.31;97566.13;5051967;28;20012;-91
2023/08/04 00:20:20;;;;;;;;;;;;;;;30.36;32.39;97559.19;5052003;28;19984;-91
2023/08/04 00:22:46;;;;;;;;;;;;;;;30.49;31.77;97570.97;5051561;28;20424;-91
2023/08/04 00:25:12;;;;;;;;;;;;;;;30.81;31.68;97582.56;5050434;28;19969;-91
2023/08/04 00:27:38;;;;;;;;;;;;;;;31.11;31.18;97581.25;5052228;28;19916;-91
2023/08/04 00:30:04;;;;;;;;;;;;;;;31.33;30.91;97582.31;5051873;28;19921;-91
2023/08/04 00:32:30;;;;;;;;;;;;;;;31.49;30.38;97585.88;5051703;28;19927;-91
2023/08/04 00:34:56;;;;;;;;;;;;;;;31.51;30.44;97589.03;5051363;28;19917;-91
2023/08/04 00:37:23;;;;;;;;;;;;;;;31.07;31.53;97594.81;5051739;28;20429;-91
2023/08/04 00:39:49;;;;;;;;;;;;;;;31.17;30.99;97599.09;5055128;28;19917;-91
2023/08/04 00:42:15;;;;;;;;;;;;;;;31.13;31.28;97605.00;5071718;28;20395;-91
2023/08/04 00:44:41;;;;;;;;;;;;;;;31.40;30.62;97589.63;5068379;28;19924;-91
2023/08/04 00:47:07;;;;;;;;;;;;;;;31.32;31.17;97597.00;5071342;28;19920;-91
2023/08/04 00:49:33;;;;;;;;;;;;;;;30.80;31.64;97592.34;5049665;28;20008;-90
2023/08/04 00:52:00;;;;;;;;;;;;;;;30.83;31.68;97600.63;5050193;28;20394;-91
2023/08/04 00:54:26;;;;;;;;;;;;;;;30.98;31.33;97601.41;5049968;28;20297;-91
2023/08/04 00:56:53;;;;;;;;;;;;;;;31.13;31.10;97599.31;5051438;28;19917;-91
2023/08/04 00:59:19;;;;;;;;;;;;;;;31.39;30.55;97611.53;5051210;28;19917;-91
2023/08/04 01:01:46;;;;;;;;;;;;;;;31.53;30.96;97629.81;5051760;28;20027;-91
2023/08/04 01:04:12;;;;;;;;;;;;;;;31.52;30.60;97636.78;5050949;28;20405;-91
2023/08/04 01:06:59;;;;;;;;;;;;;;;31.17;30.92;97630.31;5049715;28;20274;-90
2023/08/04 01:09:40;;;;;;;;;;;;;;;30.82;31.47;97647.28;5051088;28;19993;-91
2023/08/04 01:12:15;;;;;;;;;;;;;;;30.94;31.57;97634.09;5051205;28;19924;-90
2023/08/04 01:14:42;;;;;;;;;;;;;;;30.95;31.46;97633.56;5051142;28;20392;-91
2023/08/04 01:17:28;;;;;;;;;;;;;;;30.66;31.82;97631.56;5051003;28;19917;-90
2023/08/04 01:19:55;;;;;;;;;;;;;;;30.91;31.70;97623.72;5050633;28;19917;-90
2023/08/04 01:22:21;;;;;;;;;;;;;;;31.10;31.46;97636.38;5050980;28;19917;-91
2023/08/04 01:24:48;;;;;;;;;;;;;;;31.20;31.14;97618.75;5050772;28;19918;-91
2023/08/04 01:27:17;;;;;;;;;;;;;;;31.06;31.60;97613.91;5049628;28;20445;-91
2023/08/04 01:29:44;;;;;;;;;;;;;;;30.88;31.82;97613.34;5051087;28;19917;-91
2023/08/04 01:32:11;;;;;;;;;;;;;;;30.56;32.04;97612.28;5051019;28;19952;-91
2023/08/04 01:34:37;;;;;;;;;;;;;;;30.52;32.19;97620.22;5051089;28;19924;-91
2023/08/04 01:37:03;;;;;;;;;;;;;;;30.70;32.03;97620.78;5050942;28;19916;-92
2023/08/04 01:39:29;;;;;;;;;;;;;;;30.75;31.85;97611.59;5051137;28;20436;-92
2023/08/04 01:41:55;;;;;;;;;;;;;;;30.73;31.60;97605.66;5070573;28;20028;-91
2023/08/04 01:44:21;;;;;;;;;;;;;;;30.60;31.99;97599.50;5070721;28;19921;-92
2023/08/04 01:46:47;;;;;;;;;;;;;;;30.41;32.53;97600.19;5062322;28;19916;-91
2023/08/04 01:49:13;;;;;;;;;;;;;;;30.18;33.03;97589.72;5050491;28;19917;-91
2023/08/04 01:51:39;;;;;;;;;;;;;;;30.01;33.49;97597.91;5051135;28;19916;-91
2023/08/04 01:54:05;;;;;;;;;;;;;;;30.18;32.79;97604.63;5050478;28;20068;-91
2023/08/04 01:56:31;;;;;;;;;;;;;;;30.63;32.45;97606.22;5050547;28;19925;-91
2023/08/04 01:58:57;;;;;;;;;;;;;;;30.60;32.54;97613.66;5050551;28;20007;-91
2023/08/04 02:01:23;;;;;;;;;;;;;;;30.77;32.26;97606.22;5051542;28;19956;-91
2023/08/04 02:03:49;;;;;;;;;;;;;;;30.97;31.50;97608.34;5053800;28;20417;-91
2023/08/04 02:06:16;;;;;;;;;;;;;;;31.08;31.81;97611.38;5053888;28;19917;-92
2023/08/04 02:08:42;;;;;;;;;;;;;;;31.18;31.40;97621.28;5054526;28;20365;-91
2023/08/04 02:11:08;;;;;;;;;;;;;;;31.26;31.35;97618.84;5053854;28;19931;-91
2023/08/04 02:13:34;;;;;;;;;;;;;;;31.35;31.28;97610.19;5053600;28;19921;-91
2023/08/04 02:16:00;;;;;;;;;;;;;;;31.41;31.05;97620.31;5053772;28;20293;-91
2023/08/04 02:18:26;;;;;;;;;;;;;;;31.30;31.21;97631.53;5053524;28;19917;-91
2023/08/04 02:20:52;;;;;;;;;;;;;;;31.39;31.27;97625.72;5053907;28;19920;-91
2023/08/04 02:23:18;;;;;;;;;;;;;;;31.22;31.67;97627.56;5053702;28;19969;-91
2023/08/04 02:25:44;;;;;;;;;;;;;;;31.22;31.55;97635.28;5054150;28;19917;-91
2023/08/04 02:28:10;;;;;;;;;;;;;;;31.25;31.79;97637.16;5053747;28;19965;-91
2023/08/04 02:30:36;;;;;;;;;;;;;;;31.12;31.88;97631.78;5053602;28;19919;-91
2023/08/04 02:33:02;;;;;;;;;;;;;;;31.19;32.00;97627.75;5053294;28;20345;-91
2023/08/04 02:35:28;;;;;;;;;;;;;;;31.23;31.51;97626.28;5053632;28;20013;-92
2023/08/04 02:37:54;;;;;;;;;;;;;;;31.04;31.75;97619.28;5053497;28;20016;-91
2023/08/04 02:40:21;;;;;;;;;;;;;;;31.15;32.04;97624.34;5056310;28;20286;-91
2023/08/04 02:42:47;;;;;;;;;;;;;;;31.35;31.17;97632.88;5054329;28;19928;-91
2023/08/04 02:45:13;;;;;;;;;;;;;;;31.49;31.07;97625.63;5053130;28;19917;-91
2023/08/04 02:47:39;;;;;;;;;;;;;;;31.58;31.18;97634.78;5053181;28;20003;-91
2023/08/04 02:50:05;;;;;;;;;;;;;;;31.39;31.16;97639.91;5068695;28;19912;-91
2023/08/04 02:52:31;;;;;;;;;;;;;;;31.16;31.47;97640.88;5068956;28;20343;-91
2023/08/04 02:54:57;;;;;;;;;;;;;;;30.93;32.29;97632.50;5053289;28;19959;-92
2023/08/04 02:57:28;;;;;;;;;;;;;;;30.58;32.82;97630.38;5053548;28;19940;-91
2023/08/04 02:59:54;;;;;;;;;;;;;;;30.28;33.40;97622.31;5058600;28;19917;-91
2023/08/04 03:02:20;;;;;;;;;;;;;;;30.19;33.17;97620.38;5058631;28;19919;-92
2023/08/04 03:04:46;;;;;;;;;;;;;;;29.73;34.31;97622.03;5058693;28;19917;-92
2023/08/04 03:07:12;;;;;;;;;;;;;;;29.98;33.82;97627.97;5054666;28;19917;-91
2023/08/04 03:09:38;;;;;;;;;;;;;;;30.20;33.74;97621.91;5053000;28;19962;-91
2023/08/04 03:12:04;;;;;;;;;;;;;;;30.39;33.17;97625.38;5052870;28;19993;-91
2023/08/04 03:14:30;;;;;;;;;;;;;;;30.47;33.03;97623.72;5052889;28;19961;-91
2023/08/04 03:16:56;;;;;;;;;;;;;;;30.43;33.27;97626.78;5054328;28;19928;-91
2023/08/04 03:19:22;;;;;;;;;;;;;;;30.28;33.32;97630.81;5056577;28;19917;-91
2023/08/04 03:21:48;;;;;;;;;;;;;;;30.38;33.42;97621.78;5054872;28;19917;-91
2023/08/04 03:24:14;;;;;;;;;;;;;;;30.38;33.04;97626.66;5072913;28;20011;-91
2023/08/04 03:26:40;;;;;;;;;;;;;;;30.40;33.28;97630.56;5072750;28;20359;-92
2023/08/04 03:29:06;;;;;;;;;;;;;;;30.54;33.06;97623.34;5072580;28;19968;-91
2023/08/04 03:31:32;;;;;;;;;;;;;;;30.39;33.40;97617.66;5072679;28;19968;-91
2023/08/04 03:33:58;;;;;;;;;;;;;;;30.20;33.54;97610.59;5067513;28;19917;-91
2023/08/04 03:36:24;;;;;;;;;;;;;;;30.46;33.60;97608.78;5052567;28;19917;-91
2023/08/04 03:38:50;;;;;;;;;;;;;;;30.57;32.95;97628.03;5052651;28;19954;-91
2023/08/04 03:41:16;;;;;;;;;;;;;;;30.91;32.49;97643.56;5052282;28;20008;-91
2023/08/04 03:43:42;;;;;;;;;;;;;;;31.20;32.08;97647.09;5052216;28;21030;-91
2023/08/04 03:46:08;;;;;;;;;;;;;;;31.41;31.64;97647.94;5052360;28;20050;-91
2023/08/04 03:48:34;;;;;;;;;;;;;;;31.63;31.34;97653.94;5052349;28;19917;-91
2023/08/04 03:51:00;;;;;;;;;;;;;;;31.69;31.21;97643.47;5058753;28;19916;-91
2023/08/04 03:53:26;;;;;;;;;;;;;;;31.72;31.24;97653.81;5070676;28;19921;-91
2023/08/04 03:55:52;;;;;;;;;;;;;;;31.86;31.33;97661.47;5072289;28;19959;-92
2023/08/04 03:58:18;;;;;;;;;;;;;;;31.95;31.52;97663.41;5071986;28;19916;-91
2023/08/04 04:00:44;;;;;;;;;;;;;;;31.41;32.06;97662.91;5072272;28;19920;-92
2023/08/04 04:03:10;;;;;;;;;;;;;;;30.97;32.75;97656.56;5072212;28;20089;-91
2023/08/04 04:05:38;;;;;;;;;;;;;;;30.80;33.15;97663.19;5071960;28;20330;-91
2023/08/04 04:08:04;;;;;;;;;;;;;;;31.01;32.74;97664.88;5064801;27;19917;-92
2023/08/04 04:10:30;;;;;;;;;;;;;;;31.43;32.15;97679.47;5051994;28;20271;-92
2023/08/04 04:12:56;;;;;;;;;;;;;;;31.49;32.12;97668.97;5051475;28;19925;-92
2023/08/04 04:15:22;;;;;;;;;;;;;;;31.09;32.94;97675.31;5050666;28;19917;-91
2023/08/04 04:17:48;;;;;;;;;;;;;;;31.02;33.13;97677.75;5051781;28;20297;-92
2023/08/04 04:20:14;;;;;;;;;;;;;;;31.21;32.63;97681.94;5051789;27;19916;-92
2023/08/04 04:22:40;;;;;;;;;;;;;;;31.34;32.11;97685.25;5051849;28;19917;-92
2023/08/04 04:25:06;;;;;;;;;;;;;;;31.14;32.61;97680.28;5058241;28;19976;-92
2023/08/04 04:27:32;;;;;;;;;;;;;;;30.68;33.67;97696.25;5071487;28;19916;-92
2023/08/04 04:29:58;;;;;;;;;;;;;;;30.97;32.66;97699.09;5072154;28;19956;-92
2023/08/04 04:32:24;;;;;;;;;;;;;;;31.28;32.17;97701.38;5071782;28;20003;-91
2023/08/04 04:34:50;;;;;;;;;;;;;;;31.20;32.15;97698.16;5071658;28;19973;-91
2023/08/04 04:37:16;;;;;;;;;;;;;;;31.19;32.84;97712.84;5071599;28;19917;-92
2023/08/04 04:39:42;;;;;;;;;;;;;;;31.43;32.41;97716.38;5069147;28;20008;-91
2023/08/04 04:42:08;;;;;;;;;;;;;;;31.70;32.49;97718.81;5054090;28;19967;-92
2023/08/04 04:44:34;;;;;;;;;;;;;;;31.84;31.76;97709.47;5051466;28;20020;-92
2023/08/04 04:47:00;;;;;;;;;;;;;;;31.80;33.05;97714.56;5051546;28;20355;-92
2023/08/04 04:49:27;;;;;;;;;;;;;;;31.92;32.62;97719.13;5051387;28;19960;-91
2023/08/04 04:51:53;;;;;;;;;;;;;;;31.66;33.02;97709.72;5051448;28;19917;-92
2023/08/04 04:54:19;;;;;;;;;;;;;;;31.68;33.29;97712.84;5051245;28;19939;-92
2023/08/04 04:56:45;;;;;;;;;;;;;;;31.81;33.68;97721.81;5051129;28;20007;-92
2023/08/04 04:59:11;;;;;;;;;;;;;;;31.95;32.89;97720.19;5059256;28;19916;-92
2023/08/04 05:01:37;;;;;;;;;;;;;;;32.01;32.92;97721.06;5071242;28;19924;-91
2023/08/04 05:04:03;;;;;;;;;;;;;;;31.86;33.11;97729.63;5071233;28;19943;-92
2023/08/04 05:06:29;;;;;;;;;;;;;;;32.06;32.62;97740.25;5071041;28;19917;-92
2023/08/04 05:08:55;;;;;;;;;;;;;;;32.33;32.79;97744.69;5071060;28;19920;-92
2023/08/04 05:11:21;;;;;;;;;;;;;;;32.44;32.24;97742.00;5070766;28;19923;-91
2023/08/04 05:13:47;;;;;;;;;;;;;;;32.27;33.09;97741.03;5071158;28;19917;-91
2023/08/04 05:16:13;;;;;;;;;;;;;;;32.06;33.51;97741.03;5070010;28;19916;-92
2023/08/04 05:18:39;;;;;;;;;;;;;;;31.84;33.60;97728.56;5071094;28;19916;-91
2023/08/04 05:21:05;;;;;;;;;;;;;;;31.84;34.20;97734.22;5070961;28;19923;-91
2023/08/04 05:23:31;;;;;;;;;;;;;;;32.01;33.89;97733.22;5059405;28;19916;-91
2023/08/04 05:25:57;;;;;;;;;;;;;;;32.05;33.99;97735.84;5050587;28;19917;-92
2023/08/04 05:28:27;;;;;;;;;;;;;;;32.25;33.68;97733.00;5050786;28;20011;-91
2023/08/04 05:30:55;;;;;;;;;;;;;;;32.09;33.63;97734.34;5050841;28;20370;-91
2023/08/04 05:33:21;;;;;;;;;;;;;;;32.00;33.61;97733.69;5051522;27;20376;-92
2023/08/04 05:35:47;;;;;;;;;;;;;;;31.87;33.96;97739.72;5049704;28;19913;-92
2023/08/04 05:38:14;;;;;;;;;;;;;;;32.08;33.44;97749.84;5050901;28;19917;-92
2023/08/04 05:40:41;;;;;;;;;;;;;;;32.43;32.56;97748.97;5050604;28;19952;-91
2023/08/04 05:43:07;;;;;;;;;;;;;;;32.65;32.65;97740.72;5050609;28;19917;-91
2023/08/04 05:45:34;;;;;;;;;;;;;;;32.51;32.46;97741.59;5050622;28;19924;-92
2023/08/04 05:48:00;;;;;;;;;;;;;;;32.30;32.94;97734.34;5050775;28;19984;-92
2023/08/04 05:50:27;;;;;;;;;;;;;;;32.12;32.83;97732.56;5056391;28;19925;-92
2023/08/04 05:52:53;;;;;;;;;;;;;;;31.82;33.91;97733.94;5050801;28;20011;-92
2023/08/04 05:55:22;;;;;;;;;;;;;;;31.90;32.77;97729.41;5065208;28;19921;-92
2023/08/04 05:57:49;;;;;;;;;;;;;;;31.93;32.68;97728.41;5070544;28;20400;-92
2023/08/04 06:00:15;;;;;;;;;;;;;;;31.96;33.26;97725.41;5062923;28;19924;-92
2023/08/04 06:02:43;;;;;;;;;;;;;;;32.13;32.79;97734.13;5050510;28;19921;-91
2023/08/04 06:05:09;;;;;;;;;;;;;;;31.75;33.42;97726.63;5050627;28;19917;-91
2023/08/04 06:07:35;;;;;;;;;;;;;;;31.72;33.43;97744.66;5060465;28;20020;-91
2023/08/04 06:10:02;;;;;;;;;;;;;;;31.92;33.44;97752.41;5070130;28;19952;-91
2023/08/04 06:12:28;;;;;;;;;;;;;;;31.99;33.42;97749.19;5068774;27;19925;-91
2023/08/04 06:14:55;;;;;;;;;;;;;;;31.73;33.06;97751.91;5060064;28;20004;-91
2023/08/04 06:17:21;;;;;;;;;;;;;;;31.56;33.49;97747.25;5050238;28;19916;-91
2023/08/04 06:19:47;;;;;;;;;;;;;;;31.71;34.05;97740.25;5050467;27;19924;-91
2023/08/04 06:22:16;;;;;;;;;;;;;;;31.60;33.43;97734.41;5065712;27;19921;-91
2023/08/04 06:24:42;;;;;;;;;;;;;;;31.45;34.16;97742.19;5050333;27;19964;-91
2023/08/04 06:27:08;;;;;;;;;;;;;;;31.61;32.80;97760.75;5050119;28;20422;-91
2023/08/04 06:29:34;;;;;;;;;;;;;;;31.85;32.43;97761.34;5050203;28;19976;-91
2023/08/04 06:32:01;;;;;;;;;;;;;;;31.76;33.17;97761.50;5050227;28;20407;-91
2023/08/04 06:34:27;;;;;;;;;;;;;;;31.65;33.23;97773.44;5050118;28;19924;-91
2023/08/04 06:36:53;;;;;;;;;;;;;;;31.89;32.77;97771.22;5049977;28;19917;-91
2023/08/04 06:39:19;;;;;;;;;;;;;;;32.00;33.07;97767.78;5049787;28;19939;-91
2023/08/04 06:41:45;;;;;;;;;;;;;;;32.16;31.99;97774.97;5050364;28;19925;-91
2023/08/04 06:44:13;;;;;;;;;;;;;;;32.17;32.98;97750.97;5049927;28;20458;-91
2023/08/04 06:46:39;;;;;;;;;;;;;;;31.81;33.64;97743.75;5049784;28;19923;-91
2023/08/04 06:49:05;;;;;;;;;;;;;;;31.75;32.95;97748.56;5053389;28;19917;-91
2023/08/04 06:51:31;;;;;;;;;;;;;;;31.67;34.31;97745.34;5053453;28;20016;-91
2023/08/04 06:53:57;;;;;;;;;;;;;;;31.95;33.44;97757.88;5053130;28;20381;-91
2023/08/04 06:56:23;;;;;;;;;;;;;;;32.00;33.67;97753.56;5059556;28;19920;-91
2023/08/04 06:58:49;;;;;;;;;;;;;;;32.02;33.01;97756.72;5071358;28;19943;-91
2023/08/04 07:01:15;;;;;;;;;;;;;;;31.56;34.58;97758.59;5071995;27;19921;-91
2023/08/04 07:03:41;;;;;;;;;;;;;;;31.14;35.04;97761.75;5073659;28;19927;-92
2023/08/04 07:06:07;;;;;;;;;;;;;;;30.99;35.38;97781.63;5073195;28;19922;-92
2023/08/04 07:08:33;;;;;;;;;;;;;;;31.31;35.19;97772.13;5076260;28;20366;-92
2023/08/04 07:10:59;;;;;;;;;;;;;;;31.72;34.00;97775.88;5074896;27;20058;-92
2023/08/04 07:13:25;;;;;;;;;;;;;;;32.00;34.23;97764.94;5068348;28;19967;-92
2023/08/04 07:15:58;;;;;;;;;;;;;;;31.95;34.66;97766.41;5054188;28;19921;-92
2023/08/04 07:18:24;;;;;;;;;;;;;;;32.24;33.63;97770.41;5052923;28;19969;-91
2023/08/04 07:20:51;;;;;;;;;;;;;;;32.18;33.30;97787.41;5053177;28;19981;-92
2023/08/04 07:23:17;;;;;;;;;;;;;;;32.32;33.54;97791.47;5052681;28;19917;-91
2023/08/04 07:25:43;;;;;;;;;;;;;;;32.57;33.82;97796.44;5052974;28;19952;-91
2023/08/04 07:28:09;;;;;;;;;;;;;;;32.62;33.61;97787.19;5051631;28;20308;-91
2023/08/04 07:30:37;;;;;;;;;;;;;;;32.48;33.72;97797.34;5052962;28;20385;-91
2023/08/04 07:33:06;;;;;;;;;;;;;;;32.62;33.29;97795.72;5068041;28;19916;-91
2023/08/04 07:35:33;;;;;;;;;;;;;;;32.93;33.68;97795.78;5072901;28;19916;-91
2023/08/04 07:37:59;;;;;;;;;;;;;;;33.07;32.86;97794.19;5072874;28;19912;-91
2023/08/04 07:40:25;;;;;;;;;;;;;;;33.22;32.25;97801.28;5073454;28;19923;-91
2023/08/04 07:42:51;;;;;;;;;;;;;;;33.39;32.09;97790.06;5072437;28;20023;-91
2023/08/04 07:45:17;;;;;;;;;;;;;;;32.98;32.97;97800.00;5072282;28;20017;-91
2023/08/04 07:47:43;;;;;;;;;;;;;;;33.03;33.25;97802.91;5073023;28;19916;-90
2023/08/04 07:50:09;;;;;;;;;;;;;;;32.95;33.24;97804.63;5056901;28;19917;-91
2023/08/04 07:52:35;;;;;;;;;;;;;;;33.05;32.75;97793.91;5052536;28;19917;-91
2023/08/04 07:55:01;;;;;;;;;;;;;;;32.97;33.39;97796.38;5052439;28;19939;-91
2023/08/04 07:57:28;;;;;;;;;;;;;;;33.30;33.78;97793.84;5052492;28;19917;-90
2023/08/04 07:59:54;;;;;;;;;;;;;;;33.53;32.68;97792.03;5051185;28;20207;-91
2023/08/04 08:02:20;;;;;;;;;;;;;;;33.40;32.64;97803.00;5052080;28;20297;-91
2023/08/04 08:04:46;;;;;;;;;;;;;;;33.46;32.08;97791.66;5052106;28;19924;-90
2023/08/04 08:07:12;;;;;;;;;;;;;;;33.45;32.93;97770.94;5052589;28;19920;-91
2023/08/04 08:09:38;;;;;;;;;;;;;;;33.38;32.39;97775.03;5052194;28;19955;-90
2023/08/04 08:12:04;;;;;;;;;;;;;;;33.19;31.69;97773.84;5051798;28;20012;-91
2023/08/04 08:14:30;;;;;;;;;;;;;;;33.08;32.76;97762.38;5052215;28;19916;-91
2023/08/04 08:16:56;;;;;;;;;;;;;;;32.98;32.60;97769.47;5051920;28;19917;-91
2023/08/04 08:19:22;;;;;;;;;;;;;;;32.79;33.19;97779.66;5051948;28;19952;-90
2023/08/04 08:21:48;;;;;;;;;;;;;;;33.28;32.82;97781.44;5052086;28;19927;-90
2023/08/04 08:24:14;;;;;;;;;;;;;;;33.50;31.49;97792.19;5068930;28;20360;-91
2023/08/04 08:26:40;;;;;;;;;;;;;;;33.28;32.01;97790.72;5072007;28;19955;-91
2023/08/04 08:29:07;;;;;;;;;;;;;;;33.19;31.75;97807.97;5063597;28;19963;-91
2023/08/04 08:31:33;;;;;;;;;;;;;;;33.38;32.06;97792.13;5056636;28;20011;-92
2023/08/04 08:33:59;;;;;;;;;;;;;;;33.32;31.91;97794.16;5051753;28;20419;-91
2023/08/04 08:36:25;;;;;;;;;;;;;;;33.71;32.14;97805.09;5061750;28;19999;-91
2023/08/04 08:38:51;;;;;;;;;;;;;;;33.75;30.91;97799.94;5070469;27;19952;-91
2023/08/04 08:41:17;;;;;;;;;;;;;;;33.46;32.44;97803.84;5070607;28;19963;-91
2023/08/04 08:43:44;;;;;;;;;;;;;;;33.38;33.88;97803.50;5066821;27;20392;-91
2023/08/04 08:46:11;;;;;;;;;;;;;;;33.36;33.39;97813.84;5051529;28;19924;-91
2023/08/04 08:48:38;;;;;;;;;;;;;;;33.37;32.51;97804.78;5051275;28;19921;-91
2023/08/04 08:51:11;;;;;;;;;;;;;;;33.29;32.54;97812.22;5051457;28;20294;-91
2023/08/04 08:53:38;;;;;;;;;;;;;;;33.20;33.88;97817.31;5051509;28;19917;-91
2023/08/04 08:56:04;;;;;;;;;;;;;;;33.43;34.01;97822.69;5051401;28;19913;-92
2023/08/04 08:58:32;;;;;;;;;;;;;;;33.78;34.08;97821.69;5070732;28;20376;-91
2023/08/04 09:00:59;;;;;;;;;;;;;;;33.95;32.96;97812.00;5071313;27;19913;-92
2023/08/04 09:03:26;;;;;;;;;;;;;;;33.75;33.86;97814.19;5071026;27;19916;-92
2023/08/04 09:05:52;;;;;;;;;;;;;;;34.04;33.02;97811.81;5071158;28;19916;-91
2023/08/04 09:08:18;;;;;;;;;;;;;;;34.23;32.42;97797.16;5071161;27;20361;-92
2023/08/04 09:10:44;;;;;;;;;;;;;;;34.17;32.66;97804.91;5071109;27;19923;-92
2023/08/04 09:13:11;;;;;;;;;;;;;;;34.18;33.11;97803.59;5070566;28;20011;-91
2023/08/04 09:15:46;;;;;;;;;;;;;;;34.10;32.82;97797.59;5071016;28;20416;-91
2023/08/04 09:18:25;;;;;;;;;;;;;;;34.33;31.99;97796.41;5070903;28;19941;-91
2023/08/04 09:21:21;;;;;;;;;;;;;;;34.45;31.80;97788.72;5071057;28;19921;-92
2023/08/04 09:23:49;;;;;;;;;;;;;;;34.36;32.73;97780.34;5072564;28;19920;-92
2023/08/04 09:26:16;;;;;;;;;;;;;;;34.27;32.93;97781.34;5050948;28;20374;-91
2023/08/04 09:28:42;;;;;;;;;;;;;;;34.19;33.57;97779.50;5050898;28;19920;-91
2023/08/04 09:31:09;;;;;;;;;;;;;;;34.25;34.05;97786.78;5051338;28;19924;-91
2023/08/04 09:33:41;;;;;;;;;;;;;;;34.40;33.25;97784.50;5050691;28;19921;-91
2023/08/04 09:36:08;;;;;;;;;;;;;;;34.77;32.98;97795.06;5050783;28;20301;-91
2023/08/04 09:38:35;;;;;;;;;;;;;;;34.74;33.13;97794.78;5050830;28;20389;-91
2023/08/04 09:41:02;;;;;;;;;;;;;;;34.96;32.36;97796.91;5050617;28;19925;-91
2023/08/04 09:43:28;;;;;;;;;;;;;;;35.10;31.52;97800.88;5050715;28;19917;-91
2023/08/04 09:45:58;;;;;;;;;;;;;;;35.12;32.95;97799.06;5050436;28;20012;-91
2023/08/04 09:48:25;;;;;;;;;;;;;;;35.39;33.50;97794.66;5051830;28;19923;-91
2023/08/04 09:51:03;;;;;;;;;;;;;;;35.71;31.91;97784.53;5050863;28;19921;-91
2023/08/04 09:53:29;;;;;;;;;;;;;;;35.84;31.73;97781.94;5050554;28;19917;-91
2023/08/04 09:55:56;;;;;;;;;;;;;;;35.46;30.87;97781.94;5051335;28;19917;-91
2023/08/04 09:58:22;;;;;;;;;;;;;;;35.17;31.49;97786.84;5052472;28;19917;-91
2023/08/04 10:00:48;;;;;;;;;;;;;;;35.02;31.99;97788.41;5050621;28;19917;-91
2023/08/04 10:03:15;;;;;;;;;;;;;;;34.53;31.72;97787.72;5050796;28;20320;-91
2023/08/04 10:05:41;;;;;;;;;;;;;;;34.65;32.37;97783.63;5056175;28;19929;-90
2023/08/04 10:08:08;;;;;;;;;;;;;;;34.82;33.55;97774.31;5051130;28;19920;-90
2023/08/04 10:10:34;;;;;;;;;;;;;;;35.57;29.88;97776.25;5051229;28;20370;-91
2023/08/04 10:13:00;;;;;;;;;;;;;;;35.51;32.57;97779.13;5050103;28;20060;-91
2023/08/04 10:15:26;;;;;;;;;;;;;;;35.87;31.53;97766.59;5050172;28;19968;-91
2023/08/04 10:17:56;;;;;;;;;;;;;;;35.87;30.34;97768.69;5050637;28;19917;-91
2023/08/04 10:20:23;;;;;;;;;;;;;;;35.98;31.68;97780.13;5050461;28;20446;-91
2023/08/04 10:22:50;;;;;;;;;;;;;;;36.53;30.70;97777.06;5060172;27;19944;-90
2023/08/04 10:25:16;;;;;;;;;;;;;;;37.12;31.16;97785.09;5053920;28;19916;-90
2023/08/04 10:27:48;;;;;;;;;;;;;;;37.57;29.93;97784.78;5054204;28;19917;-91
2023/08/04 10:30:14;;;;;;;;;;;;;;;37.88;31.60;97799.34;5053496;28;19923;-90
2023/08/04 10:32:41;;;;;;;;;;;;;;;38.07;30.69;97802.28;5053675;28;19959;-90
2023/08/04 10:35:16;;;;;;;;;;;;;;;38.26;29.18;97810.94;5053493;28;20297;-91
2023/08/04 10:37:55;;;;;;;;;;;;;;;38.31;30.18;97810.91;5053818;28;20323;-91
2023/08/04 10:40:31;;;;;;;;;;;;;;;38.34;29.40;97806.97;5052813;28;20035;-90
2023/08/04 10:42:58;;;;;;;;;;;;;;;38.41;30.76;97802.72;5053799;28;19921;-91
2023/08/04 10:45:44;;;;;;;;;;;;;;;38.66;31.02;97793.53;5053427;28;19973;-90
2023/08/04 10:48:13;;;;;;;;;;;;;;;37.47;30.29;97795.00;5053294;28;19917;-91
2023/08/04 10:50:39;;;;;;;;;;;;;;;36.45;32.57;97789.59;5052100;28;19948;-90
2023/08/04 10:53:05;;;;;;;;;;;;;;;36.50;31.04;97798.16;5052001;28;19917;-91
2023/08/04 10:55:33;;;;;;;;;;;;;;;36.12;30.16;97793.34;5054042;28;19981;-90
2023/08/04 10:57:59;;;;;;;;;;;;;;;36.30;30.45;97795.59;5053298;28;20331;-90
2023/08/04 11:00:25;;;;;;;;;;;;;;;36.80;32.25;97789.69;5053139;28;20333;-90
2023/08/04 11:02:51;;;;;;;;;;;;;;;36.03;37.38;97785.81;5053127;28;19953;-91
2023/08/04 11:05:21;;;;;;;;;;;;;;;35.90;29.03;97791.25;5053396;28;19956;-90
2023/08/04 11:07:47;;;;;;;;;;;;;;;37.34;28.74;97799.22;5053007;28;19920;-90
2023/08/04 11:10:13;;;;;;;;;;;;;;;37.91;28.23;97797.50;5053163;28;20371;-90
2023/08/04 11:12:39;;;;;;;;;;;;;;;37.22;27.27;97797.78;5056515;28;20377;-90
2023/08/04 11:15:08;;;;;;;;;;;;;;;37.75;27.60;97795.53;5071549;27;19968;-90
2023/08/04 11:17:37;;;;;;;;;;;;;;;36.90;28.95;97788.06;5073760;28;19920;-90
2023/08/04 11:20:05;;;;;;;;;;;;;;;36.71;27.81;97790.75;5077579;28;20003;-91
2023/08/04 11:22:31;;;;;;;;;;;;;;;37.14;29.66;97793.16;5075749;28;19916;-90
2023/08/04 11:24:57;;;;;;;;;;;;;;;37.67;29.58;97798.22;5074895;28;19923;-90
2023/08/04 11:27:23;;;;;;;;;;;;;;;38.02;30.21;97785.91;5072892;28;19916;-90
2023/08/04 11:29:53;;;;;;;;;;;;;;;38.02;26.32;97806.75;5071900;27;20011;-91
2023/08/04 11:32:24;;;;;;;;;;;;;;;38.45;26.51;97806.84;5071485;27;20361;-91
2023/08/04 11:34:52;;;;;;;;;;;;;;;38.60;28.15;97795.69;5072878;27;19920;-90
2023/08/04 11:37:19;;;;;;;;;;;;;;;37.82;28.37;97797.81;5072897;28;19976;-90
2023/08/04 11:39:45;;;;;;;;;;;;;;;37.87;28.29;97791.28;5072953;27;19993;-91
2023/08/04 11:42:12;;;;;;;;;;;;;;;38.53;27.53;97792.66;5072461;28;20385;-90
2023/08/04 11:44:42;;;;;;;;;;;;;;;38.90;28.74;97801.31;5072890;28;20440;-90
2023/08/04 11:47:10;;;;;;;;;;;;;;;38.94;23.12;97796.03;5071525;27;19923;-90
2023/08/04 11:49:38;;;;;;;;;;;;;;;38.89;24.56;97810.47;5072641;28;19917;-90
2023/08/04 11:52:07;;;;;;;;;;;;;;;39.10;25.80;97797.88;5072338;28;20372;-91
2023/08/04 11:54:33;;;;;;;;;;;;;;;39.37;25.86;97807.44;5072508;28;19924;-90
2023/08/04 11:56:59;;;;;;;;;;;;;;;39.31;25.48;97801.00;5072289;28;19912;-90
2023/08/04 11:59:25;;;;;;;;;;;;;;;39.12;25.92;97794.47;5072530;27;19923;-90
2023/08/04 12:02:06;;;;;;;;;;;;;;;39.21;25.75;97794.13;5072232;28;19920;-90
2023/08/04 12:04:32;;;;;;;;;;;;;;;39.32;25.01;97791.06;5071702;27;19913;-90
2023/08/04 12:07:03;;;;;;;;;;;;;;;39.28;28.30;97794.25;5059944;27;19917;-89
2023/08/04 12:09:29;;;;;;;;;;;;;;;38.97;23.55;97794.19;5052115;28;20267;-90
2023/08/04 12:11:55;;;;;;;;;;;;;;;39.41;24.98;97793.53;5051689;27;19932;-90
2023/08/04 12:14:22;;;;;;;;;;;;;;;39.86;25.07;97790.69;5052041;28;19955;-91
2023/08/04 12:16:55;;;;;;;;;;;;;;;39.67;24.45;97785.00;5067372;27;19917;-91
2023/08/04 12:19:22;;;;;;;;;;;;;;;37.72;32.34;97779.41;5052104;27;19928;-91
2023/08/04 12:21:49;;;;;;;;;;;;;;;36.39;26.67;97778.16;5052711;28;20007;-91
2023/08/04 12:24:15;;;;;;;;;;;;;;;36.81;27.77;97784.75;5051740;28;20280;-91
2023/08/04 12:26:44;;;;;;;;;;;;;;;36.91;27.63;97794.56;5051676;28;20007;-90
2023/08/04 12:29:11;;;;;;;;;;;;;;;36.96;27.04;97794.56;5052016;28;20334;-90
2023/08/04 12:31:37;;;;;;;;;;;;;;;36.48;27.54;97792.19;5051653;28;19936;-91
2023/08/04 12:34:04;;;;;;;;;;;;;;;36.15;29.21;97797.22;5051939;28;19950;-90
2023/08/04 12:36:30;;;;;;;;;;;;;;;37.24;27.64;97794.38;5050402;28;19920;-90
2023/08/04 12:38:56;;;;;;;;;;;;;;;37.14;26.25;97799.66;5052142;28;19961;-90
2023/08/04 12:41:22;;;;;;;;;;;;;;;36.94;26.19;97805.00;5051343;28;20345;-90
2023/08/04 12:43:48;;;;;;;;;;;;;;;36.79;25.13;97811.03;5051716;28;20288;-89
2023/08/04 12:46:14;;;;;;;;;;;;;;;36.73;25.51;97804.56;5050794;28;19918;-90